sensor_id;sensor_type;location;lat;lon;timestamp;pressure;altitude;pressure_sealevel;temperature;humidity
5595;BME280;1003;48.002;7.788;2024-03-23T00:55:04;98645.63;;;14.41;100.00
5595;BME280;1003;48.002;7.788;2024-03-23T00:57:31;98645.09;;;14.33;100.00
5595;BME280;1003;48.002;7.788;2024-03-23T00:59:57;98642.66;;;14.30;100.00
5595;BME280;1003;48.002;7.788;2024-03-23T01:02:23;98633.50;;;14.26;100.00
5595;BME280;1003;48.002;7.788;2024-03-23T01:04:49;98625.47;;;14.14;100.00
5595;BME280;1003;48.002;7.788;2024-03-23T01:07:16;98633.00;;;14.16;100.00
5595;BME280;1003;48.002;7.788;2024-03-23T01:09:41;98619.38;;;14.20;100.00
5595;BME280;1003;48.002;7.788;2024-03-23T01:12:08;98614.53;;;14.14;100.00
5595;BME280;1003;48.002;7.788;2024-03-23T01:14:35;98613.72;;;14.13;100.00
5595;BME280;1003;48.002;7.788;2024-03-23T01:17:02;98613.38;;;13.99;100.00
5595;BME280;1003;48.002;7.788;2024-03-23T01:19:28;98618.66;;;13.91;100.00
5595;BME280;1003;48.002;7.788;2024-03-23T01:21:54;98618.19;;;13.80;100.00
5595;BME280;1003;48.002;7.788;2024-03-23T01:24:21;98619.19;;;13.75;100.00
5595;BME280;1003;48.002;7.788;2024-03-23T01:26:46;98606.66;;;13.72;100.00
5595;BME280;1003;48.002;7.788;2024-03-23T01:29:13;98603.03;;;13.80;100.00
5595;BME280;1003;48.002;7.788;2024-03-23T01:31:39;98594.28;;;13.90;100.00
5595;BME280;1003;48.002;7.788;2024-03-23T01:34:05;98584.84;;;13.96;100.00
5595;BME280;1003;48.002;7.788;2024-03-23T01:36:31;98578.16;;;13.95;100.00
5595;BME280;1003;48.002;7.788;2024-03-23T01:38:58;98573.25;;;13.90;100.00
5595;BME280;1003;48.002;7.788;2024-03-23T01:41:24;98573.84;;;13.97;100.00
5595;BME280;1003;48.002;7.788;2024-03-23T01:43:51;98567.31;;;13.91;100.00
5595;BME280;1003;48.002;7.788;2024-03-23T01:46:17;98570.03;;;13.85;100.00
5595;BME280;1003;48.002;7.788;2024-03-23T01:48:43;98566.16;;;13.75;100.00
5595;BME280;1003;48.002;7.788;2024-03-23T01:51:09;98563.03;;;13.66;100.00
5595;BME280;1003;48.002;7.788;2024-03-23T01:53:36;98559.88;;;13.61;100.00
5595;BME280;1003;48.002;7.788;2024-03-23T01:56:03;98553.34;;;13.54;100.00
5595;BME280;1003;48.002;7.788;2024-03-23T01:58:30;98551.66;;;13.55;100.00
5595;BME280;1003;48.002;7.788;2024-03-23T02:00:57;98553.06;;;13.63;100.00
5595;BME280;1003;48.002;7.788;2024-03-23T02:03:26;98557.16;;;13.68;100.00
5595;BME280;1003;48.002;7.788;2024-03-23T02:05:56;98545.44;;;13.65;100.00
5595;BME280;1003;48.002;7.788;2024-03-23T02:08:24;98531.84;;;13.69;100.00
5595;BME280;1003;48.002;7.788;2024-03-23T02:10:51;98538.84;;;13.86;100.00
5595;BME280;1003;48.002;7.788;2024-03-23T02:13:20;98537.66;;;13.96;100.00
5595;BME280;1003;48.002;7.788;2024-03-23T02:15:46;98541.59;;;14.05;100.00
5595;BME280;1003;48.002;7.788;2024-03-23T02:18:13;98541.31;;;14.12;100.00
5595;BME280;1003;48.002;7.788;2024-03-23T02:20:39;98537.97;;;14.12;100.00
5595;BME280;1003;48.002;7.788;2024-03-23T02:23:06;98539.97;;;14.02;100.00
5595;BME280;1003;48.002;7.788;2024-03-23T02:25:38;98537.97;;;14.12;100.00
5595;BME280;1003;48.002;7.788;2024-03-23T02:28:05;98531.81;;;14.19;100.00
5595;BME280;1003;48.002;7.788;2024-03-23T02:30:30;98521.84;;;14.14;100.00
5595;BME280;1003;48.002;7.788;2024-03-23T02:32:57;98528.81;;;14.08;100.00
5595;BME280;1003;48.002;7.788;2024-03-23T02:35:23;98520.34;;;14.09;100.00
5595;BME280;1003;48.002;7.788;2024-03-23T02:37:50;98513.16;;;13.98;100.00
5595;BME280;1003;48.002;7.788;2024-03-23T02:40:16;98512.69;;;13.87;100.00
5595;BME280;1003;48.002;7.788;2024-03-23T02:42:43;98503.56;;;13.83;100.00
5595;BME280;1003;48.002;7.788;2024-03-23T02:45:09;98496.06;;;13.81;100.00
5595;BME280;1003;48.002;7.788;2024-03-23T02:47:36;98499.06;;;13.68;100.00
5595;BME280;1003;48.002;7.788;2024-03-23T02:50:01;98493.63;;;13.53;100.00
5595;BME280;1003;48.002;7.788;2024-03-23T02:52:28;98485.38;;;13.48;100.00
5595;BME280;1003;48.002;7.788;2024-03-23T02:54:54;98482.97;;;13.45;100.00
5595;BME280;1003;48.002;7.788;2024-03-23T02:57:20;98468.22;;;13.33;100.00
5595;BME280;1003;48.002;7.788;2024-03-23T02:59:46;98469.69;;;13.12;100.00
5595;BME280;1003;48.002;7.788;2024-03-23T03:02:15;98463.22;;;13.05;100.00
5595;BME280;1003;48.002;7.788;2024-03-23T03:04:41;98459.03;;;13.04;100.00
5595;BME280;1003;48.002;7.788;2024-03-23T03:07:08;98466.63;;;13.04;100.00
5595;BME280;1003;48.002;7.788;2024-03-23T03:09:34;98456.53;;;13.04;100.00
5595;BME280;1003;48.002;7.788;2024-03-23T03:12:07;98445.34;;;13.11;100.00
5595;BME280;1003;48.002;7.788;2024-03-23T03:14:34;98449.44;;;13.15;100.00
5595;BME280;1003;48.002;7.788;2024-03-23T03:17:00;98433.91;;;13.27;100.00
5595;BME280;1003;48.002;7.788;2024-03-23T03:19:26;98430.31;;;13.34;100.00
5595;BME280;1003;48.002;7.788;2024-03-23T03:21:53;98422.44;;;13.44;100.00
5595;BME280;1003;48.002;7.788;2024-03-23T03:24:19;98403.47;;;13.57;100.00
5595;BME280;1003;48.002;7.788;2024-03-23T03:26:46;98394.88;;;13.62;100.00
5595;BME280;1003;48.002;7.788;2024-03-23T03:29:11;98401.44;;;13.66;100.00
5595;BME280;1003;48.002;7.788;2024-03-23T03:31:39;98401.56;;;13.63;100.00
5595;BME280;1003;48.002;7.788;2024-03-23T03:34:05;98398.38;;;13.58;100.00
5595;BME280;1003;48.002;7.788;2024-03-23T03:36:32;98392.94;;;13.69;100.00
5595;BME280;1003;48.002;7.788;2024-03-23T03:38:57;98389.28;;;13.78;100.00
5595;BME280;1003;48.002;7.788;2024-03-23T03:41:25;98379.78;;;13.84;100.00
5595;BME280;1003;48.002;7.788;2024-03-23T03:43:50;98382.31;;;13.84;100.00
5595;BME280;1003;48.002;7.788;2024-03-23T03:46:17;98376.91;;;13.70;100.00
5595;BME280;1003;48.002;7.788;2024-03-23T03:48:43;98364.50;;;13.64;100.00
5595;BME280;1003;48.002;7.788;2024-03-23T03:51:13;98367.78;;;13.66;100.00
5595;BME280;1003;48.002;7.788;2024-03-23T03:53:38;98345.88;;;13.66;100.00
5595;BME280;1003;48.002;7.788;2024-03-23T03:56:05;98339.97;;;13.68;100.00
5595;BME280;1003;48.002;7.788;2024-03-23T03:58:31;98330.03;;;13.63;100.00
5595;BME280;1003;48.002;7.788;2024-03-23T04:00:58;98328.50;;;13.59;100.00
5595;BME280;1003;48.002;7.788;2024-03-23T04:03:24;98327.19;;;13.49;100.00
5595;BME280;1003;48.002;7.788;2024-03-23T04:05:54;98313.78;;;13.47;100.00
5595;BME280;1003;48.002;7.788;2024-03-23T04:08:21;98318.06;;;13.45;100.00
5595;BME280;1003;48.002;7.788;2024-03-23T04:10:48;98309.66;;;13.44;100.00
5595;BME280;1003;48.002;7.788;2024-03-23T04:13:14;98308.16;;;13.40;100.00
5595;BME280;1003;48.002;7.788;2024-03-23T04:15:42;98301.41;;;13.41;100.00
5595;BME280;1003;48.002;7.788;2024-03-23T04:18:08;98294.50;;;13.46;100.00
5595;BME280;1003;48.002;7.788;2024-03-23T04:20:34;98280.03;;;13.49;100.00
5595;BME280;1003;48.002;7.788;2024-03-23T04:23:00;98295.41;;;13.43;100.00
5595;BME280;1003;48.002;7.788;2024-03-23T04:25:27;98292.88;;;13.43;100.00
5595;BME280;1003;48.002;7.788;2024-03-23T04:27:53;98301.84;;;13.52;100.00
5595;BME280;1003;48.002;7.788;2024-03-23T04:30:19;98296.78;;;13.52;100.00
5595;BME280;1003;48.002;7.788;2024-03-23T04:32:46;98312.75;;;13.52;100.00
5595;BME280;1003;48.002;7.788;2024-03-23T04:35:13;98312.84;;;13.49;100.00
5595;BME280;1003;48.002;7.788;2024-03-23T04:37:39;98301.94;;;13.49;100.00
5595;BME280;1003;48.002;7.788;2024-03-23T04:40:07;98314.56;;;13.49;100.00
5595;BME280;1003;48.002;7.788;2024-03-23T04:42:34;98320.41;;;13.51;100.00
5595;BME280;1003;48.002;7.788;2024-03-23T04:45:01;98338.22;;;13.46;100.00
5595;BME280;1003;48.002;7.788;2024-03-23T04:47:28;98344.97;;;13.46;100.00
5595;BME280;1003;48.002;7.788;2024-03-23T04:49:54;98358.44;;;13.45;100.00
5595;BME280;1003;48.002;7.788;2024-03-23T04:52:21;98360.22;;;13.43;100.00
5595;BME280;1003;48.002;7.788;2024-03-23T04:54:48;98358.50;;;13.43;100.00
5595;BME280;1003;48.002;7.788;2024-03-23T04:57:14;98359.59;;;13.36;100.00
5595;BME280;1003;48.002;7.788;2024-03-23T04:59:42;98358.78;;;13.35;100.00
5595;BME280;1003;48.002;7.788;2024-03-23T05:02:08;98362.28;;;13.31;100.00
5595;BME280;1003;48.002;7.788;2024-03-23T05:04:35;98367.59;;;13.24;100.00
5595;BME280;1003;48.002;7.788;2024-03-23T05:07:03;98365.19;;;13.19;100.00
5595;BME280;1003;48.002;7.788;2024-03-23T05:09:30;98370.63;;;13.07;100.00
5595;BME280;1003;48.002;7.788;2024-03-23T05:11:59;98371.63;;;13.03;100.00
5595;BME280;1003;48.002;7.788;2024-03-23T05:14:26;98368.44;;;12.98;100.00
5595;BME280;1003;48.002;7.788;2024-03-23T05:16:53;98356.06;;;12.90;100.00
5595;BME280;1003;48.002;7.788;2024-03-23T05:19:20;98358.16;;;12.77;100.00
5595;BME280;1003;48.002;7.788;2024-03-23T05:21:45;98360.22;;;12.66;100.00
5595;BME280;1003;48.002;7.788;2024-03-23T05:24:12;98360.44;;;12.58;100.00
5595;BME280;1003;48.002;7.788;2024-03-23T05:26:38;98352.59;;;12.41;100.00
5595;BME280;1003;48.002;7.788;2024-03-23T05:29:05;98361.34;;;12.29;100.00
5595;BME280;1003;48.002;7.788;2024-03-23T05:31:36;98346.59;;;12.17;100.00
5595;BME280;1003;48.002;7.788;2024-03-23T05:34:03;98335.03;;;12.10;100.00
5595;BME280;1003;48.002;7.788;2024-03-23T05:36:29;98328.63;;;12.00;100.00
5595;BME280;1003;48.002;7.788;2024-03-23T05:38:56;98308.66;;;11.94;100.00
5595;BME280;1003;48.002;7.788;2024-03-23T05:41:21;98291.22;;;11.88;100.00
5595;BME280;1003;48.002;7.788;2024-03-23T05:43:49;98258.69;;;11.81;100.00
5595;BME280;1003;48.002;7.788;2024-03-23T05:46:15;98257.06;;;11.79;100.00
5595;BME280;1003;48.002;7.788;2024-03-23T05:48:43;98255.56;;;11.73;100.00
5595;BME280;1003;48.002;7.788;2024-03-23T05:51:09;98252.03;;;11.79;100.00
5595;BME280;1003;48.002;7.788;2024-03-23T05:53:37;98257.81;;;11.82;100.00
5595;BME280;1003;48.002;7.788;2024-03-23T05:56:04;98262.84;;;11.82;100.00
5595;BME280;1003;48.002;7.788;2024-03-23T05:58:31;98273.78;;;11.81;100.00
5595;BME280;1003;48.002;7.788;2024-03-23T06:00:59;98276.53;;;11.74;100.00
5595;BME280;1003;48.002;7.788;2024-03-23T06:03:27;98299.34;;;11.68;100.00
5595;BME280;1003;48.002;7.788;2024-03-23T06:05:53;98312.84;;;11.65;100.00
5595;BME280;1003;48.002;7.788;2024-03-23T06:08:20;98340.06;;;11.51;100.00
5595;BME280;1003;48.002;7.788;2024-03-23T06:10:46;98354.78;;;11.34;100.00
5595;BME280;1003;48.002;7.788;2024-03-23T06:13:14;98383.78;;;11.16;100.00
5595;BME280;1003;48.002;7.788;2024-03-23T06:15:40;98405.84;;;11.04;100.00
5595;BME280;1003;48.002;7.788;2024-03-23T06:18:06;98405.13;;;10.99;100.00
5595;BME280;1003;48.002;7.788;2024-03-23T06:20:34;98432.19;;;10.90;100.00
5595;BME280;1003;48.002;7.788;2024-03-23T06:23:01;98436.59;;;10.80;100.00
5595;BME280;1003;48.002;7.788;2024-03-23T06:25:27;98445.91;;;10.75;100.00
5595;BME280;1003;48.002;7.788;2024-03-23T06:27:54;98457.03;;;10.66;100.00
5595;BME280;1003;48.002;7.788;2024-03-23T06:30:20;98473.16;;;10.56;100.00
5595;BME280;1003;48.002;7.788;2024-03-23T06:32:46;98476.75;;;10.43;100.00
5595;BME280;1003;48.002;7.788;2024-03-23T06:35:12;98483.03;;;10.23;100.00
5595;BME280;1003;48.002;7.788;2024-03-23T06:37:39;98481.44;;;10.18;100.00
5595;BME280;1003;48.002;7.788;2024-03-23T06:40:07;98496.63;;;10.12;100.00
5595;BME280;1003;48.002;7.788;2024-03-23T06:42:36;98494.78;;;10.20;100.00
5595;BME280;1003;48.002;7.788;2024-03-23T06:45:03;98499.81;;;10.20;100.00
5595;BME280;1003;48.002;7.788;2024-03-23T06:47:30;98505.66;;;10.20;100.00
5595;BME280;1003;48.002;7.788;2024-03-23T06:49:56;98523.34;;;10.14;100.00
5595;BME280;1003;48.002;7.788;2024-03-23T06:52:23;98528.28;;;10.19;100.00
5595;BME280;1003;48.002;7.788;2024-03-23T06:54:48;98555.09;;;10.17;100.00
5595;BME280;1003;48.002;7.788;2024-03-23T06:57:15;98564.31;;;10.16;100.00
5595;BME280;1003;48.002;7.788;2024-03-23T06:59:41;98587.84;;;10.12;100.00
5595;BME280;1003;48.002;7.788;2024-03-23T07:02:08;98593.75;;;10.10;100.00
5595;BME280;1003;48.002;7.788;2024-03-23T07:04:35;98618.81;;;10.13;100.00
5595;BME280;1003;48.002;7.788;2024-03-23T07:07:02;98631.31;;;10.14;100.00
5595;BME280;1003;48.002;7.788;2024-03-23T07:09:29;98637.13;;;10.16;100.00
5595;BME280;1003;48.002;7.788;2024-03-23T07:11:57;98657.22;;;10.16;100.00
5595;BME280;1003;48.002;7.788;2024-03-23T07:14:23;98657.97;;;10.21;100.00
5595;BME280;1003;48.002;7.788;2024-03-23T07:16:51;98663.81;;;10.22;100.00
5595;BME280;1003;48.002;7.788;2024-03-23T07:19:17;98668.97;;;10.17;100.00
5595;BME280;1003;48.002;7.788;2024-03-23T07:21:45;98681.53;;;10.14;100.00
5595;BME280;1003;48.002;7.788;2024-03-23T07:24:11;98688.97;;;10.20;100.00
5595;BME280;1003;48.002;7.788;2024-03-23T07:26:38;98703.13;;;10.28;100.00
5595;BME280;1003;48.002;7.788;2024-03-23T07:29:04;98711.50;;;10.27;100.00
5595;BME280;1003;48.002;7.788;2024-03-23T07:31:31;98716.56;;;10.25;100.00
5595;BME280;1003;48.002;7.788;2024-03-23T07:33:57;98717.88;;;10.46;100.00
5595;BME280;1003;48.002;7.788;2024-03-23T07:36:24;98715.44;;;10.41;100.00
5595;BME280;1003;48.002;7.788;2024-03-23T07:38:50;98720.50;;;10.38;100.00
5595;BME280;1003;48.002;7.788;2024-03-23T07:41:19;98732.28;;;10.36;100.00
5595;BME280;1003;48.002;7.788;2024-03-23T07:43:47;98738.34;;;10.24;100.00
5595;BME280;1003;48.002;7.788;2024-03-23T07:46:16;98751.81;;;10.16;100.00
5595;BME280;1003;48.002;7.788;2024-03-23T07:48:42;98758.59;;;10.11;100.00
5595;BME280;1003;48.002;7.788;2024-03-23T07:51:15;98771.97;;;10.11;100.00
5595;BME280;1003;48.002;7.788;2024-03-23T07:53:44;98775.44;;;10.04;100.00
5595;BME280;1003;48.002;7.788;2024-03-23T07:56:12;98788.88;;;10.02;100.00
5595;BME280;1003;48.002;7.788;2024-03-23T07:58:38;98798.97;;;9.98;100.00
5595;BME280;1003;48.002;7.788;2024-03-23T08:01:13;98816.69;;;9.86;100.00
5595;BME280;1003;48.002;7.788;2024-03-23T08:03:43;98824.38;;;9.76;100.00
5595;BME280;1003;48.002;7.788;2024-03-23T08:06:17;98827.84;;;9.62;100.00
5595;BME280;1003;48.002;7.788;2024-03-23T08:08:45;98850.47;;;9.61;100.00
5595;BME280;1003;48.002;7.788;2024-03-23T08:11:13;98851.94;;;9.77;100.00
5595;BME280;1003;48.002;7.788;2024-03-23T08:13:41;98858.56;;;9.83;100.00
5595;BME280;1003;48.002;7.788;2024-03-23T08:16:08;98861.22;;;9.70;100.00
5595;BME280;1003;48.002;7.788;2024-03-23T08:18:34;98864.59;;;9.68;100.00
5595;BME280;1003;48.002;7.788;2024-03-23T08:21:06;98885.75;;;9.45;100.00
5595;BME280;1003;48.002;7.788;2024-03-23T08:23:34;98889.06;;;9.49;100.00
5595;BME280;1003;48.002;7.788;2024-03-23T08:26:06;98897.59;;;10.08;100.00
5595;BME280;1003;48.002;7.788;2024-03-23T08:28:33;98903.50;;;10.67;100.00
5595;BME280;1003;48.002;7.788;2024-03-23T08:31:06;98913.59;;;10.66;100.00
5595;BME280;1003;48.002;7.788;2024-03-23T08:33:32;98925.34;;;10.62;100.00
5595;BME280;1003;48.002;7.788;2024-03-23T08:36:07;98945.63;;;10.50;100.00
5595;BME280;1003;48.002;7.788;2024-03-23T08:38:34;98959.03;;;10.49;100.00
5595;BME280;1003;48.002;7.788;2024-03-23T08:41:07;98964.81;;;10.54;100.00
5595;BME280;1003;48.002;7.788;2024-03-23T08:43:40;98972.09;;;10.74;100.00
5595;BME280;1003;48.002;7.788;2024-03-23T08:46:14;98981.00;;;10.98;100.00
5595;BME280;1003;48.002;7.788;2024-03-23T08:48:47;98984.44;;;11.43;100.00
5595;BME280;1003;48.002;7.788;2024-03-23T08:51:16;98981.41;;;11.74;100.00
5595;BME280;1003;48.002;7.788;2024-03-23T08:53:43;98983.34;;;12.06;100.00
5595;BME280;1003;48.002;7.788;2024-03-23T08:56:10;98996.38;;;12.26;100.00
5595;BME280;1003;48.002;7.788;2024-03-23T08:58:38;99008.59;;;12.03;100.00
5595;BME280;1003;48.002;7.788;2024-03-23T09:01:13;99007.22;;;11.87;100.00
5595;BME280;1003;48.002;7.788;2024-03-23T09:03:40;99005.16;;;12.07;100.00
5595;BME280;1003;48.002;7.788;2024-03-23T09:06:11;99005.31;;;12.41;100.00
5595;BME280;1003;48.002;7.788;2024-03-23T09:08:38;99013.06;;;12.33;100.00
5595;BME280;1003;48.002;7.788;2024-03-23T09:11:07;99001.19;;;12.37;100.00
5595;BME280;1003;48.002;7.788;2024-03-23T09:13:36;99001.19;;;12.37;100.00
5595;BME280;1003;48.002;7.788;2024-03-23T09:16:03;99006.56;;;12.20;100.00
5595;BME280;1003;48.002;7.788;2024-03-23T09:18:33;99006.50;;;12.25;100.00
5595;BME280;1003;48.002;7.788;2024-03-23T09:20:59;99012.38;;;12.24;100.00
5595;BME280;1003;48.002;7.788;2024-03-23T09:23:26;98999.91;;;12.18;100.00
5595;BME280;1003;48.002;7.788;2024-03-23T09:25:51;99004.53;;;12.38;100.00
5595;BME280;1003;48.002;7.788;2024-03-23T09:28:18;98997.44;;;12.56;100.00
5595;BME280;1003;48.002;7.788;2024-03-23T09:30:44;98997.03;;;12.76;100.00
5595;BME280;1003;48.002;7.788;2024-03-23T09:33:14;98999.31;;;13.24;100.00
5595;BME280;1003;48.002;7.788;2024-03-23T09:35:42;98998.38;;;13.62;100.00
5595;BME280;1003;48.002;7.788;2024-03-23T09:38:10;98995.03;;;13.62;100.00
5595;BME280;1003;48.002;7.788;2024-03-23T09:40:41;99003.16;;;13.73;100.00
5595;BME280;1003;48.002;7.788;2024-03-23T09:43:09;99012.72;;;13.95;100.00
5595;BME280;1003;48.002;7.788;2024-03-23T09:45:39;99023.47;;;14.01;100.00
5595;BME280;1003;48.002;7.788;2024-03-23T09:48:09;99014.25;;;13.99;100.00
5595;BME280;1003;48.002;7.788;2024-03-23T09:50:40;99022.38;;;14.41;100.00
5595;BME280;1003;48.002;7.788;2024-03-23T09:53:08;99028.34;;;14.38;100.00
5595;BME280;1003;48.002;7.788;2024-03-23T09:55:35;99027.28;;;14.77;100.00
5595;BME280;1003;48.002;7.788;2024-03-23T09:58:03;99039.16;;;15.03;100.00
5595;BME280;1003;48.002;7.788;2024-03-23T10:00:31;99052.59;;;14.77;100.00
5595;BME280;1003;48.002;7.788;2024-03-23T10:03:01;99066.06;;;14.15;100.00
5595;BME280;1003;48.002;7.788;2024-03-23T10:05:29;99086.47;;;13.75;100.00
5595;BME280;1003;48.002;7.788;2024-03-23T10:07:57;99105.25;;;12.87;100.00
5595;BME280;1003;48.002;7.788;2024-03-23T10:10:25;99103.16;;;12.21;100.00
5595;BME280;1003;48.002;7.788;2024-03-23T10:12:52;99080.34;;;11.77;100.00
5595;BME280;1003;48.002;7.788;2024-03-23T10:15:24;99085.13;;;11.42;100.00
5595;BME280;1003;48.002;7.788;2024-03-23T10:17:52;99070.09;;;11.37;100.00
5595;BME280;1003;48.002;7.788;2024-03-23T10:20:24;99071.25;;;11.16;100.00
5595;BME280;1003;48.002;7.788;2024-03-23T10:22:51;99070.69;;;10.96;100.00
5595;BME280;1003;48.002;7.788;2024-03-23T10:25:18;99063.41;;;10.77;100.00
5595;BME280;1003;48.002;7.788;2024-03-23T10:28:00;99076.03;;;10.70;100.00
5595;BME280;1003;48.002;7.788;2024-03-23T10:30:27;99092.59;;;10.06;100.00
5595;BME280;1003;48.002;7.788;2024-03-23T10:33:14;99104.94;;;9.29;100.00
5595;BME280;1003;48.002;7.788;2024-03-23T10:35:43;99108.63;;;8.58;100.00
5595;BME280;1003;48.002;7.788;2024-03-23T10:38:09;99131.19;;;8.23;100.00
5595;BME280;1003;48.002;7.788;2024-03-23T10:40:36;99146.25;;;7.95;100.00
5595;BME280;1003;48.002;7.788;2024-03-23T10:43:04;99157.03;;;7.44;100.00
5595;BME280;1003;48.002;7.788;2024-03-23T10:45:31;99167.00;;;7.27;100.00
5595;BME280;1003;48.002;7.788;2024-03-23T10:47:56;99169.47;;;7.24;100.00
5595;BME280;1003;48.002;7.788;2024-03-23T10:50:23;99156.13;;;7.13;100.00
5595;BME280;1003;48.002;7.788;2024-03-23T10:52:52;99131.97;;;7.18;100.00
5595;BME280;1003;48.002;7.788;2024-03-23T10:55:23;99107.03;;;7.44;100.00
5595;BME280;1003;48.002;7.788;2024-03-23T10:57:52;99090.38;;;7.76;100.00
5595;BME280;1003;48.002;7.788;2024-03-23T11:00:19;99080.28;;;8.31;100.00
5595;BME280;1003;48.002;7.788;2024-03-23T11:02:48;99078.44;;;8.82;100.00
5595;BME280;1003;48.002;7.788;2024-03-23T11:07:53;99072.91;;;9.66;100.00
5595;BME280;1003;48.002;7.788;2024-03-23T11:10:28;99075.34;;;9.74;100.00
5595;BME280;1003;48.002;7.788;2024-03-23T11:12:57;99074.31;;;9.95;100.00
5595;BME280;1003;48.002;7.788;2024-03-23T11:15:24;99076.69;;;10.10;100.00
5595;BME280;1003;48.002;7.788;2024-03-23T11:18:05;99062.47;;;10.08;100.00
5595;BME280;1003;48.002;7.788;2024-03-23T11:20:35;99060.66;;;10.20;100.00
5595;BME280;1003;48.002;7.788;2024-03-23T11:23:01;99052.94;;;10.40;100.00
5595;BME280;1003;48.002;7.788;2024-03-23T11:25:29;99061.00;;;10.65;100.00
5595;BME280;1003;48.002;7.788;2024-03-23T11:28:11;99054.75;;;10.95;100.00
5595;BME280;1003;48.002;7.788;2024-03-23T11:30:38;99051.97;;;11.15;100.00
5595;BME280;1003;48.002;7.788;2024-03-23T11:33:04;99057.59;;;11.33;100.00
5595;BME280;1003;48.002;7.788;2024-03-23T11:35:36;99049.31;;;11.26;100.00
5595;BME280;1003;48.002;7.788;2024-03-23T11:40:48;99051.28;;;11.06;100.00
5595;BME280;1003;48.002;7.788;2024-03-23T11:43:18;99044.72;;;10.95;100.00
5595;BME280;1003;48.002;7.788;2024-03-23T11:45:47;99052.28;;;10.94;100.00
5595;BME280;1003;48.002;7.788;2024-03-23T11:48:21;99048.56;;;11.19;100.00
5595;BME280;1003;48.002;7.788;2024-03-23T11:50:53;99040.75;;;11.89;100.00
5595;BME280;1003;48.002;7.788;2024-03-23T11:53:24;99038.69;;;12.09;100.00
5595;BME280;1003;48.002;7.788;2024-03-23T11:55:55;99042.00;;;12.56;100.00
5595;BME280;1003;48.002;7.788;2024-03-23T11:58:23;99036.59;;;12.73;100.00
5595;BME280;1003;48.002;7.788;2024-03-23T12:00:56;99044.81;;;13.20;100.00
5595;BME280;1003;48.002;7.788;2024-03-23T12:03:23;99029.34;;;12.96;100.00
5595;BME280;1003;48.002;7.788;2024-03-23T12:05:54;99039.69;;;12.85;100.00
5595;BME280;1003;48.002;7.788;2024-03-23T12:08:33;99046.31;;;13.28;100.00
5595;BME280;1003;48.002;7.788;2024-03-23T12:11:15;99034.16;;;13.46;100.00
5595;BME280;1003;48.002;7.788;2024-03-23T12:13:45;99046.03;;;14.07;100.00
5595;BME280;1003;48.002;7.788;2024-03-23T12:18:47;99045.34;;;14.02;100.00
5595;BME280;1003;48.002;7.788;2024-03-23T12:21:15;99048.91;;;13.95;100.00
5595;BME280;1003;48.002;7.788;2024-03-23T12:23:41;99052.31;;;13.92;100.00
5595;BME280;1003;48.002;7.788;2024-03-23T12:26:09;99048.75;;;14.01;100.00
5595;BME280;1003;48.002;7.788;2024-03-23T12:28:35;99043.75;;;14.00;100.00
5595;BME280;1003;48.002;7.788;2024-03-23T12:31:03;99041.88;;;14.06;100.00
5595;BME280;1003;48.002;7.788;2024-03-23T12:33:29;99047.41;;;14.19;100.00
5595;BME280;1003;48.002;7.788;2024-03-23T12:35:55;99065.50;;;14.04;100.00
5595;BME280;1003;48.002;7.788;2024-03-23T12:38:21;99050.56;;;14.27;100.00
5595;BME280;1003;48.002;7.788;2024-03-23T12:40:51;99064.19;;;14.54;100.00
5595;BME280;1003;48.002;7.788;2024-03-23T12:43:18;99068.97;;;14.63;100.00
5595;BME280;1003;48.002;7.788;2024-03-23T12:45:49;99078.66;;;14.49;100.00
5595;BME280;1003;48.002;7.788;2024-03-23T12:48:18;99063.56;;;14.44;100.00
5595;BME280;1003;48.002;7.788;2024-03-23T12:50:44;99064.13;;;14.25;100.00
5595;BME280;1003;48.002;7.788;2024-03-23T12:53:10;99106.63;;;13.76;100.00
5595;BME280;1003;48.002;7.788;2024-03-23T12:55:37;99096.22;;;13.16;100.00
5595;BME280;1003;48.002;7.788;2024-03-23T12:58:03;99098.00;;;12.72;100.00
5595;BME280;1003;48.002;7.788;2024-03-23T13:00:30;99087.88;;;12.30;100.00
5595;BME280;1003;48.002;7.788;2024-03-23T13:02:56;99080.78;;;12.04;100.00
5595;BME280;1003;48.002;7.788;2024-03-23T13:05:22;99080.84;;;12.01;100.00
5595;BME280;1003;48.002;7.788;2024-03-23T13:07:48;99094.06;;;12.57;100.00
5595;BME280;1003;48.002;7.788;2024-03-23T13:10:15;99079.31;;;12.80;100.00
5595;BME280;1003;48.002;7.788;2024-03-23T13:12:41;99090.69;;;13.00;100.00
5595;BME280;1003;48.002;7.788;2024-03-23T13:15:08;99095.00;;;13.33;100.00
5595;BME280;1003;48.002;7.788;2024-03-23T13:17:34;99087.66;;;13.61;100.00
5595;BME280;1003;48.002;7.788;2024-03-23T13:20:02;99091.22;;;13.87;100.00
5595;BME280;1003;48.002;7.788;2024-03-23T13:22:28;99126.31;;;13.63;100.00
5595;BME280;1003;48.002;7.788;2024-03-23T13:24:55;99111.72;;;13.39;100.00
5595;BME280;1003;48.002;7.788;2024-03-23T13:27:21;99097.81;;;13.58;100.00
5595;BME280;1003;48.002;7.788;2024-03-23T13:29:48;99108.16;;;13.82;100.00
5595;BME280;1003;48.002;7.788;2024-03-23T13:32:13;99098.13;;;13.80;100.00
5595;BME280;1003;48.002;7.788;2024-03-23T13:34:40;99090.16;;;13.96;100.00
5595;BME280;1003;48.002;7.788;2024-03-23T13:37:06;99088.41;;;13.99;100.00
5595;BME280;1003;48.002;7.788;2024-03-23T13:39:33;99095.00;;;14.05;100.00
5595;BME280;1003;48.002;7.788;2024-03-23T13:41:59;99100.69;;;13.79;100.00
5595;BME280;1003;48.002;7.788;2024-03-23T13:44:25;99114.31;;;13.34;100.00
5595;BME280;1003;48.002;7.788;2024-03-23T13:46:51;99095.28;;;13.21;100.00
5595;BME280;1003;48.002;7.788;2024-03-23T13:49:29;99091.13;;;13.17;100.00
5595;BME280;1003;48.002;7.788;2024-03-23T13:51:57;99082.66;;;13.21;100.00
5595;BME280;1003;48.002;7.788;2024-03-23T13:54:25;99091.75;;;13.28;100.00
5595;BME280;1003;48.002;7.788;2024-03-23T13:56:52;99089.69;;;13.46;100.00
5595;BME280;1003;48.002;7.788;2024-03-23T13:59:19;99100.91;;;13.32;100.00
5595;BME280;1003;48.002;7.788;2024-03-23T14:01:46;99110.28;;;13.27;100.00
5595;BME280;1003;48.002;7.788;2024-03-23T14:04:13;99127.69;;;13.39;100.00
5595;BME280;1003;48.002;7.788;2024-03-23T14:06:42;99113.97;;;13.50;100.00
5595;BME280;1003;48.002;7.788;2024-03-23T14:09:11;99083.00;;;13.79;100.00
5595;BME280;1003;48.002;7.788;2024-03-23T14:11:37;99136.38;;;13.65;100.00
5595;BME280;1003;48.002;7.788;2024-03-23T14:14:04;99146.75;;;13.53;98.03
5595;BME280;1003;48.002;7.788;2024-03-23T14:16:31;99151.56;;;13.63;96.97